sensor_id;sensor_type;location;lat;lon;timestamp;temperature;humidity
6964;DHT22;3522;50.856;7.278;2023-02-01T00:01:21;5.80;99.90
6964;DHT22;3522;50.856;7.278;2023-02-01T00:03:48;5.80;99.90
6964;DHT22;3522;50.856;7.278;2023-02-01T00:06:15;5.80;99.90
6964;DHT22;3522;50.856;7.278;2023-02-01T00:08:42;5.80;99.90
6964;DHT22;3522;50.856;7.278;2023-02-01T00:11:09;5.80;99.90
6964;DHT22;3522;50.856;7.278;2023-02-01T00:13:37;5.80;99.90
6964;DHT22;3522;50.856;7.278;2023-02-01T00:16:04;5.80;99.90
6964;DHT22;3522;50.856;7.278;2023-02-01T00:18:30;5.80;99.90
6964;DHT22;3522;50.856;7.278;2023-02-01T00:20:58;5.80;99.90
6964;DHT22;3522;50.856;7.278;2023-02-01T00:23:25;5.80;99.90
6964;DHT22;3522;50.856;7.278;2023-02-01T00:25:52;5.70;99.90
6964;DHT22;3522;50.856;7.278;2023-02-01T00:28:19;5.70;99.90
6964;DHT22;3522;50.856;7.278;2023-02-01T00:30:45;5.70;99.90
6964;DHT22;3522;50.856;7.278;2023-02-01T00:33:12;5.70;99.90
6964;DHT22;3522;50.856;7.278;2023-02-01T00:35:38;5.70;99.90
6964;DHT22;3522;50.856;7.278;2023-02-01T00:38:06;5.80;99.90
6964;DHT22;3522;50.856;7.278;2023-02-01T00:40:33;5.80;99.90
6964;DHT22;3522;50.856;7.278;2023-02-01T00:42:59;5.80;99.90
6964;DHT22;3522;50.856;7.278;2023-02-01T00:45:26;5.80;99.90
6964;DHT22;3522;50.856;7.278;2023-02-01T00:47:52;5.80;99.90
6964;DHT22;3522;50.856;7.278;2023-02-01T00:50:19;5.80;99.90
6964;DHT22;3522;50.856;7.278;2023-02-01T00:52:45;5.80;99.90
6964;DHT22;3522;50.856;7.278;2023-02-01T00:55:13;5.80;99.90
6964;DHT22;3522;50.856;7.278;2023-02-01T00:57:40;5.80;99.90
6964;DHT22;3522;50.856;7.278;2023-02-01T01:00:07;5.80;99.90
6964;DHT22;3522;50.856;7.278;2023-02-01T01:02:33;5.70;99.90
6964;DHT22;3522;50.856;7.278;2023-02-01T01:05:00;5.70;99.90
6964;DHT22;3522;50.856;7.278;2023-02-01T01:07:27;5.70;99.90
6964;DHT22;3522;50.856;7.278;2023-02-01T01:09:53;5.70;99.90
6964;DHT22;3522;50.856;7.278;2023-02-01T01:12:21;5.70;99.90
6964;DHT22;3522;50.856;7.278;2023-02-01T01:14:48;5.70;99.90
6964;DHT22;3522;50.856;7.278;2023-02-01T01:17:14;5.70;99.90
6964;DHT22;3522;50.856;7.278;2023-02-01T01:19:41;5.70;99.90
6964;DHT22;3522;50.856;7.278;2023-02-01T01:22:07;5.60;99.90
6964;DHT22;3522;50.856;7.278;2023-02-01T01:24:34;5.60;99.90
6964;DHT22;3522;50.856;7.278;2023-02-01T01:27:00;5.60;99.90
6964;DHT22;3522;50.856;7.278;2023-02-01T01:29:29;5.60;99.90
6964;DHT22;3522;50.856;7.278;2023-02-01T01:31:56;5.60;99.90
6964;DHT22;3522;50.856;7.278;2023-02-01T01:34:22;5.60;99.90
6964;DHT22;3522;50.856;7.278;2023-02-01T01:36:49;5.60;99.90
6964;DHT22;3522;50.856;7.278;2023-02-01T01:39:15;5.60;99.90
6964;DHT22;3522;50.856;7.278;2023-02-01T01:41:42;5.60;99.90
6964;DHT22;3522;50.856;7.278;2023-02-01T01:46:51;5.60;99.90
6964;DHT22;3522;50.856;7.278;2023-02-01T01:49:19;5.50;99.90
6964;DHT22;3522;50.856;7.278;2023-02-01T01:51:47;5.50;99.90
6964;DHT22;3522;50.856;7.278;2023-02-01T01:54:16;5.50;99.90
6964;DHT22;3522;50.856;7.278;2023-02-01T01:56:43;5.40;99.90
6964;DHT22;3522;50.856;7.278;2023-02-01T01:59:12;5.40;99.90
6964;DHT22;3522;50.856;7.278;2023-02-01T02:01:39;5.40;99.90
6964;DHT22;3522;50.856;7.278;2023-02-01T02:04:07;5.40;99.90
6964;DHT22;3522;50.856;7.278;2023-02-01T02:06:37;5.40;99.90
6964;DHT22;3522;50.856;7.278;2023-02-01T02:09:05;5.40;99.90
6964;DHT22;3522;50.856;7.278;2023-02-01T02:11:31;5.30;99.90
6964;DHT22;3522;50.856;7.278;2023-02-01T02:13:58;5.30;99.90
6964;DHT22;3522;50.856;7.278;2023-02-01T02:16:33;5.20;99.90
6964;DHT22;3522;50.856;7.278;2023-02-01T02:19:05;5.20;99.90
6964;DHT22;3522;50.856;7.278;2023-02-01T02:21:42;5.20;99.90
6964;DHT22;3522;50.856;7.278;2023-02-01T02:24:24;5.20;99.90
6964;DHT22;3522;50.856;7.278;2023-02-01T02:29:59;5.10;99.90
6964;DHT22;3522;50.856;7.278;2023-02-01T02:32:45;5.20;99.90
6964;DHT22;3522;50.856;7.278;2023-02-01T02:35:16;5.20;99.90
6964;DHT22;3522;50.856;7.278;2023-02-01T02:37:48;5.20;99.90
6964;DHT22;3522;50.856;7.278;2023-02-01T02:40:20;5.20;99.90
6964;DHT22;3522;50.856;7.278;2023-02-01T02:42:50;5.20;99.90
6964;DHT22;3522;50.856;7.278;2023-02-01T02:45:49;5.20;99.90
6964;DHT22;3522;50.856;7.278;2023-02-01T02:48:36;5.30;99.90
6964;DHT22;3522;50.856;7.278;2023-02-01T02:51:07;5.30;99.90
6964;DHT22;3522;50.856;7.278;2023-02-01T02:54:01;5.30;99.90
6964;DHT22;3522;50.856;7.278;2023-02-01T02:56:46;5.30;99.90
6964;DHT22;3522;50.856;7.278;2023-02-01T02:59:32;5.30;99.90
6964;DHT22;3522;50.856;7.278;2023-02-01T03:02:16;5.40;99.90
6964;DHT22;3522;50.856;7.278;2023-02-01T03:05:00;5.40;99.90
6964;DHT22;3522;50.856;7.278;2023-02-01T03:07:49;5.40;99.90
6964;DHT22;3522;50.856;7.278;2023-02-01T03:10:19;5.40;99.90
6964;DHT22;3522;50.856;7.278;2023-02-01T03:12:49;5.40;99.90
6964;DHT22;3522;50.856;7.278;2023-02-01T03:15:23;5.40;99.90
6964;DHT22;3522;50.856;7.278;2023-02-01T03:17:51;5.40;99.90
6964;DHT22;3522;50.856;7.278;2023-02-01T03:20:20;5.40;99.90
6964;DHT22;3522;50.856;7.278;2023-02-01T03:22:48;5.40;99.90
6964;DHT22;3522;50.856;7.278;2023-02-01T03:25:17;5.40;99.90
6964;DHT22;3522;50.856;7.278;2023-02-01T03:27:46;5.40;99.90
6964;DHT22;3522;50.856;7.278;2023-02-01T03:30:15;5.40;99.90
6964;DHT22;3522;50.856;7.278;2023-02-01T03:32:44;5.40;99.90
6964;DHT22;3522;50.856;7.278;2023-02-01T03:35:28;5.40;99.90
6964;DHT22;3522;50.856;7.278;2023-02-01T03:37:59;5.40;99.90
6964;DHT22;3522;50.856;7.278;2023-02-01T03:40:27;5.40;99.90
6964;DHT22;3522;50.856;7.278;2023-02-01T03:42:57;5.40;99.90
6964;DHT22;3522;50.856;7.278;2023-02-01T03:45:26;5.40;99.90
6964;DHT22;3522;50.856;7.278;2023-02-01T03:47:55;5.40;99.90
6964;DHT22;3522;50.856;7.278;2023-02-01T03:50:22;5.50;99.90
6964;DHT22;3522;50.856;7.278;2023-02-01T03:52:51;5.40;99.90
6964;DHT22;3522;50.856;7.278;2023-02-01T03:55:20;5.40;99.90
6964;DHT22;3522;50.856;7.278;2023-02-01T03:57:49;5.40;99.90
6964;DHT22;3522;50.856;7.278;2023-02-01T04:00:18;5.40;99.90
6964;DHT22;3522;50.856;7.278;2023-02-01T04:02:47;5.40;99.90
6964;DHT22;3522;50.856;7.278;2023-02-01T04:05:13;5.40;99.90
6964;DHT22;3522;50.856;7.278;2023-02-01T04:07:40;5.40;99.90
6964;DHT22;3522;50.856;7.278;2023-02-01T04:10:07;5.40;99.90
6964;DHT22;3522;50.856;7.278;2023-02-01T04:12:35;5.30;99.90
6964;DHT22;3522;50.856;7.278;2023-02-01T04:15:02;5.30;99.90
6964;DHT22;3522;50.856;7.278;2023-02-01T04:17:29;5.30;99.90
6964;DHT22;3522;50.856;7.278;2023-02-01T04:19:55;5.20;99.90
6964;DHT22;3522;50.856;7.278;2023-02-01T04:22:22;5.20;99.90
6964;DHT22;3522;50.856;7.278;2023-02-01T04:24:48;5.20;99.90
6964;DHT22;3522;50.856;7.278;2023-02-01T04:27:15;5.20;99.90
6964;DHT22;3522;50.856;7.278;2023-02-01T04:29:43;5.20;99.90
6964;DHT22;3522;50.856;7.278;2023-02-01T04:32:10;5.20;99.90
6964;DHT22;3522;50.856;7.278;2023-02-01T04:34:36;5.20;99.90
6964;DHT22;3522;50.856;7.278;2023-02-01T04:37:03;5.30;99.90
6964;DHT22;3522;50.856;7.278;2023-02-01T04:39:29;5.30;99.90
6964;DHT22;3522;50.856;7.278;2023-02-01T04:41:56;5.30;99.90
6964;DHT22;3522;50.856;7.278;2023-02-01T04:44:23;5.30;99.90
6964;DHT22;3522;50.856;7.278;2023-02-01T04:46:51;5.40;99.90
6964;DHT22;3522;50.856;7.278;2023-02-01T04:49:17;5.40;99.90
6964;DHT22;3522;50.856;7.278;2023-02-01T04:51:45;5.40;99.90
6964;DHT22;3522;50.856;7.278;2023-02-01T04:54:11;5.40;99.90
6964;DHT22;3522;50.856;7.278;2023-02-01T04:56:38;5.40;99.90
6964;DHT22;3522;50.856;7.278;2023-02-01T04:59:04;5.40;99.90
6964;DHT22;3522;50.856;7.278;2023-02-01T05:01:31;5.40;99.90
6964;DHT22;3522;50.856;7.278;2023-02-01T05:03:59;5.30;99.90
6964;DHT22;3522;50.856;7.278;2023-02-01T05:06:26;5.30;99.90
6964;DHT22;3522;50.856;7.278;2023-02-01T05:08:52;5.20;99.90
6964;DHT22;3522;50.856;7.278;2023-02-01T05:11:19;5.20;99.90
6964;DHT22;3522;50.856;7.278;2023-02-01T05:14:02;5.10;99.90
6964;DHT22;3522;50.856;7.278;2023-02-01T05:16:29;5.10;99.90
6964;DHT22;3522;50.856;7.278;2023-02-01T05:18:56;5.10;99.90
6964;DHT22;3522;50.856;7.278;2023-02-01T05:21:24;5.00;99.90
6964;DHT22;3522;50.856;7.278;2023-02-01T05:23:51;5.10;99.90
6964;DHT22;3522;50.856;7.278;2023-02-01T05:26:35;5.20;99.90
6964;DHT22;3522;50.856;7.278;2023-02-01T05:29:02;5.20;99.90
6964;DHT22;3522;50.856;7.278;2023-02-01T05:31:29;5.20;99.90
6964;DHT22;3522;50.856;7.278;2023-02-01T05:33:56;5.20;99.90
6964;DHT22;3522;50.856;7.278;2023-02-01T05:36:24;5.10;99.90
6964;DHT22;3522;50.856;7.278;2023-02-01T05:38:50;5.10;99.90
6964;DHT22;3522;50.856;7.278;2023-02-01T05:41:17;5.10;99.90
6964;DHT22;3522;50.856;7.278;2023-02-01T05:43:43;5.10;99.90
6964;DHT22;3522;50.856;7.278;2023-02-01T05:46:10;5.10;99.90
6964;DHT22;3522;50.856;7.278;2023-02-01T05:48:38;5.10;99.90
6964;DHT22;3522;50.856;7.278;2023-02-01T05:51:04;5.10;99.90
6964;DHT22;3522;50.856;7.278;2023-02-01T05:53:32;5.10;99.90
6964;DHT22;3522;50.856;7.278;2023-02-01T05:55:59;5.10;99.90
6964;DHT22;3522;50.856;7.278;2023-02-01T05:58:25;5.10;99.90
6964;DHT22;3522;50.856;7.278;2023-02-01T06:00:52;5.00;99.90
6964;DHT22;3522;50.856;7.278;2023-02-01T06:03:19;5.00;99.90
6964;DHT22;3522;50.856;7.278;2023-02-01T06:05:46;5.00;99.90
6964;DHT22;3522;50.856;7.278;2023-02-01T06:08:12;5.00;99.90
6964;DHT22;3522;50.856;7.278;2023-02-01T06:10:40;5.00;99.90
6964;DHT22;3522;50.856;7.278;2023-02-01T06:13:07;5.00;99.90
6964;DHT22;3522;50.856;7.278;2023-02-01T06:15:34;5.00;99.90
6964;DHT22;3522;50.856;7.278;2023-02-01T06:18:02;5.00;99.90
6964;DHT22;3522;50.856;7.278;2023-02-01T06:20:29;5.10;99.90
6964;DHT22;3522;50.856;7.278;2023-02-01T06:22:55;5.10;99.90
6964;DHT22;3522;50.856;7.278;2023-02-01T06:25:22;5.10;99.90
6964;DHT22;3522;50.856;7.278;2023-02-01T06:27:50;5.10;99.90
6964;DHT22;3522;50.856;7.278;2023-02-01T06:30:17;5.10;99.90
6964;DHT22;3522;50.856;7.278;2023-02-01T06:32:43;5.10;99.90
6964;DHT22;3522;50.856;7.278;2023-02-01T06:35:10;5.10;99.90
6964;DHT22;3522;50.856;7.278;2023-02-01T06:37:41;5.10;99.90
6964;DHT22;3522;50.856;7.278;2023-02-01T06:40:08;5.10;99.90
6964;DHT22;3522;50.856;7.278;2023-02-01T06:42:35;5.00;99.90
6964;DHT22;3522;50.856;7.278;2023-02-01T06:45:03;5.00;99.90
6964;DHT22;3522;50.856;7.278;2023-02-01T06:47:31;5.00;99.90
6964;DHT22;3522;50.856;7.278;2023-02-01T06:49:58;5.00;99.90
6964;DHT22;3522;50.856;7.278;2023-02-01T06:52:24;4.90;99.90
6964;DHT22;3522;50.856;7.278;2023-02-01T06:54:51;4.90;99.90
6964;DHT22;3522;50.856;7.278;2023-02-01T06:57:18;5.00;99.90
6964;DHT22;3522;50.856;7.278;2023-02-01T06:59:44;5.00;99.90
6964;DHT22;3522;50.856;7.278;2023-02-01T07:02:12;5.00;99.90
6964;DHT22;3522;50.856;7.278;2023-02-01T07:04:38;5.00;99.90
6964;DHT22;3522;50.856;7.278;2023-02-01T07:07:05;5.00;99.90
6964;DHT22;3522;50.856;7.278;2023-02-01T07:09:31;5.00;99.90
6964;DHT22;3522;50.856;7.278;2023-02-01T07:11:58;4.90;99.90
6964;DHT22;3522;50.856;7.278;2023-02-01T07:14:25;4.90;99.90
6964;DHT22;3522;50.856;7.278;2023-02-01T07:16:51;4.90;99.90
6964;DHT22;3522;50.856;7.278;2023-02-01T07:19:19;4.90;99.90
6964;DHT22;3522;50.856;7.278;2023-02-01T07:21:45;4.90;99.90
6964;DHT22;3522;50.856;7.278;2023-02-01T07:24:12;4.90;99.90
6964;DHT22;3522;50.856;7.278;2023-02-01T07:26:39;4.90;99.90
6964;DHT22;3522;50.856;7.278;2023-02-01T07:29:06;4.90;99.90
6964;DHT22;3522;50.856;7.278;2023-02-01T07:31:33;5.00;99.90
6964;DHT22;3522;50.856;7.278;2023-02-01T07:33:59;5.00;99.90
6964;DHT22;3522;50.856;7.278;2023-02-01T07:36:29;5.00;99.90
6964;DHT22;3522;50.856;7.278;2023-02-01T07:38:55;5.00;99.90
6964;DHT22;3522;50.856;7.278;2023-02-01T07:41:24;5.10;99.90
6964;DHT22;3522;50.856;7.278;2023-02-01T07:43:51;5.10;99.90
6964;DHT22;3522;50.856;7.278;2023-02-01T07:46:18;5.10;99.90
6964;DHT22;3522;50.856;7.278;2023-02-01T07:48:45;5.10;99.90
6964;DHT22;3522;50.856;7.278;2023-02-01T07:51:12;5.10;99.90
6964;DHT22;3522;50.856;7.278;2023-02-01T07:53:40;5.10;99.90
6964;DHT22;3522;50.856;7.278;2023-02-01T07:56:09;5.10;99.90
6964;DHT22;3522;50.856;7.278;2023-02-01T07:58:37;5.10;99.90
6964;DHT22;3522;50.856;7.278;2023-02-01T08:01:03;5.10;99.90
6964;DHT22;3522;50.856;7.278;2023-02-01T08:03:50;5.10;99.90
6964;DHT22;3522;50.856;7.278;2023-02-01T08:06:17;5.20;99.90
6964;DHT22;3522;50.856;7.278;2023-02-01T08:08:46;5.20;99.90
6964;DHT22;3522;50.856;7.278;2023-02-01T08:11:13;5.20;99.90
6964;DHT22;3522;50.856;7.278;2023-02-01T08:13:40;5.20;99.90
6964;DHT22;3522;50.856;7.278;2023-02-01T08:16:07;5.20;99.90
6964;DHT22;3522;50.856;7.278;2023-02-01T08:18:34;5.20;99.90
6964;DHT22;3522;50.856;7.278;2023-02-01T08:21:02;5.20;99.90
6964;DHT22;3522;50.856;7.278;2023-02-01T08:23:29;5.20;99.90
6964;DHT22;3522;50.856;7.278;2023-02-01T08:26:04;5.20;99.90
6964;DHT22;3522;50.856;7.278;2023-02-01T08:28:31;5.20;99.90
6964;DHT22;3522;50.856;7.278;2023-02-01T08:30:57;5.20;99.90
6964;DHT22;3522;50.856;7.278;2023-02-01T08:33:24;5.20;99.90
6964;DHT22;3522;50.856;7.278;2023-02-01T08:35:50;5.20;99.90
6964;DHT22;3522;50.856;7.278;2023-02-01T08:38:17;5.30;99.90
6964;DHT22;3522;50.856;7.278;2023-02-01T08:40:44;5.30;99.90
6964;DHT22;3522;50.856;7.278;2023-02-01T08:43:12;5.30;99.90
6964;DHT22;3522;50.856;7.278;2023-02-01T08:45:39;5.30;99.90
6964;DHT22;3522;50.856;7.278;2023-02-01T08:48:06;5.20;99.90
6964;DHT22;3522;50.856;7.278;2023-02-01T08:50:33;5.20;99.90
6964;DHT22;3522;50.856;7.278;2023-02-01T08:52:59;5.20;99.90
6964;DHT22;3522;50.856;7.278;2023-02-01T08:55:26;5.30;99.90
6964;DHT22;3522;50.856;7.278;2023-02-01T08:57:53;5.20;99.90
6964;DHT22;3522;50.856;7.278;2023-02-01T09:00:21;5.20;99.90
6964;DHT22;3522;50.856;7.278;2023-02-01T09:02:47;5.30;99.90
6964;DHT22;3522;50.856;7.278;2023-02-01T09:05:14;5.30;99.90
6964;DHT22;3522;50.856;7.278;2023-02-01T09:07:41;5.40;99.90
6964;DHT22;3522;50.856;7.278;2023-02-01T09:10:08;5.40;99.90
6964;DHT22;3522;50.856;7.278;2023-02-01T09:12:35;5.40;99.90
6964;DHT22;3522;50.856;7.278;2023-02-01T09:15:03;5.50;99.90
6964;DHT22;3522;50.856;7.278;2023-02-01T09:17:33;5.50;99.90
6964;DHT22;3522;50.856;7.278;2023-02-01T09:20:00;5.50;99.90
6964;DHT22;3522;50.856;7.278;2023-02-01T09:22:26;5.60;99.90
6964;DHT22;3522;50.856;7.278;2023-02-01T09:24:53;5.60;99.90
6964;DHT22;3522;50.856;7.278;2023-02-01T09:27:20;5.70;99.90
6964;DHT22;3522;50.856;7.278;2023-02-01T09:29:47;5.70;99.90
6964;DHT22;3522;50.856;7.278;2023-02-01T09:32:17;5.70;99.90
6964;DHT22;3522;50.856;7.278;2023-02-01T09:34:45;5.80;99.90
6964;DHT22;3522;50.856;7.278;2023-02-01T09:37:12;5.80;99.90
6964;DHT22;3522;50.856;7.278;2023-02-01T09:39:38;5.80;99.90
6964;DHT22;3522;50.856;7.278;2023-02-01T09:42:08;5.90;99.90
6964;DHT22;3522;50.856;7.278;2023-02-01T09:44:44;5.90;99.90
6964;DHT22;3522;50.856;7.278;2023-02-01T09:47:15;5.80;99.90
6964;DHT22;3522;50.856;7.278;2023-02-01T09:49:45;5.80;99.90
6964;DHT22;3522;50.856;7.278;2023-02-01T09:52:13;5.80;99.90
6964;DHT22;3522;50.856;7.278;2023-02-01T09:54:42;5.80;99.90
6964;DHT22;3522;50.856;7.278;2023-02-01T09:57:13;5.80;99.90
6964;DHT22;3522;50.856;7.278;2023-02-01T09:59:41;5.80;99.90
6964;DHT22;3522;50.856;7.278;2023-02-01T10:02:11;5.80;99.90
6964;DHT22;3522;50.856;7.278;2023-02-01T10:04:38;5.80;99.90
6964;DHT22;3522;50.856;7.278;2023-02-01T10:07:15;5.90;99.90
6964;DHT22;3522;50.856;7.278;2023-02-01T10:09:57;5.90;99.90
6964;DHT22;3522;50.856;7.278;2023-02-01T10:15:18;5.90;99.90
6964;DHT22;3522;50.856;7.278;2023-02-01T10:17:50;5.90;99.90
6964;DHT22;3522;50.856;7.278;2023-02-01T10:20:19;5.90;99.90
6964;DHT22;3522;50.856;7.278;2023-02-01T10:22:51;5.90;99.90
6964;DHT22;3522;50.856;7.278;2023-02-01T10:25:21;5.90;99.90
6964;DHT22;3522;50.856;7.278;2023-02-01T10:27:50;5.90;99.90
6964;DHT22;3522;50.856;7.278;2023-02-01T10:30:18;5.90;99.90
6964;DHT22;3522;50.856;7.278;2023-02-01T10:32:45;5.90;99.90
6964;DHT22;3522;50.856;7.278;2023-02-01T10:35:15;5.90;99.90
6964;DHT22;3522;50.856;7.278;2023-02-01T10:37:42;6.00;99.90
6964;DHT22;3522;50.856;7.278;2023-02-01T10:40:15;6.00;99.90
6964;DHT22;3522;50.856;7.278;2023-02-01T10:42:42;6.10;99.90
6964;DHT22;3522;50.856;7.278;2023-02-01T10:45:11;6.20;99.90
6964;DHT22;3522;50.856;7.278;2023-02-01T10:47:39;6.20;99.90
6964;DHT22;3522;50.856;7.278;2023-02-01T10:50:10;6.30;99.90
6964;DHT22;3522;50.856;7.278;2023-02-01T10:52:41;6.40;99.90
6964;DHT22;3522;50.856;7.278;2023-02-01T10:55:27;6.50;99.90
6964;DHT22;3522;50.856;7.278;2023-02-01T10:57:55;6.60;99.90
6964;DHT22;3522;50.856;7.278;2023-02-01T11:00:22;6.60;99.90
6964;DHT22;3522;50.856;7.278;2023-02-01T11:02:48;6.80;99.90
6964;DHT22;3522;50.856;7.278;2023-02-01T11:05:16;6.90;99.90
6964;DHT22;3522;50.856;7.278;2023-02-01T11:07:46;6.90;99.90
6964;DHT22;3522;50.856;7.278;2023-02-01T11:10:15;7.00;99.90
6964;DHT22;3522;50.856;7.278;2023-02-01T11:13:15;7.00;99.90
6964;DHT22;3522;50.856;7.278;2023-02-01T11:15:43;6.90;99.90
6964;DHT22;3522;50.856;7.278;2023-02-01T11:18:17;6.90;99.90
6964;DHT22;3522;50.856;7.278;2023-02-01T11:20:45;6.70;99.90
6964;DHT22;3522;50.856;7.278;2023-02-01T11:23:15;6.70;99.90
6964;DHT22;3522;50.856;7.278;2023-02-01T11:25:47;6.60;99.90
6964;DHT22;3522;50.856;7.278;2023-02-01T11:28:15;6.60;99.90
6964;DHT22;3522;50.856;7.278;2023-02-01T11:30:43;6.60;99.90
6964;DHT22;3522;50.856;7.278;2023-02-01T11:33:12;6.60;99.90
6964;DHT22;3522;50.856;7.278;2023-02-01T11:35:39;6.40;99.90
6964;DHT22;3522;50.856;7.278;2023-02-01T11:38:11;6.40;99.90
6964;DHT22;3522;50.856;7.278;2023-02-01T11:40:38;6.40;99.90
6964;DHT22;3522;50.856;7.278;2023-02-01T11:43:07;6.40;99.90
6964;DHT22;3522;50.856;7.278;2023-02-01T11:45:36;6.40;99.90
6964;DHT22;3522;50.856;7.278;2023-02-01T11:48:07;6.50;99.90
6964;DHT22;3522;50.856;7.278;2023-02-01T11:50:36;6.60;99.90
6964;DHT22;3522;50.856;7.278;2023-02-01T11:55:49;6.80;99.90
6964;DHT22;3522;50.856;7.278;2023-02-01T11:58:23;6.70;99.90
6964;DHT22;3522;50.856;7.278;2023-02-01T12:01:01;6.70;99.90
6964;DHT22;3522;50.856;7.278;2023-02-01T12:03:39;6.70;99.90
6964;DHT22;3522;50.856;7.278;2023-02-01T12:06:11;6.60;99.90
6964;DHT22;3522;50.856;7.278;2023-02-01T12:08:48;6.60;99.90
6964;DHT22;3522;50.856;7.278;2023-02-01T12:11:21;6.50;99.90
6964;DHT22;3522;50.856;7.278;2023-02-01T12:13:55;6.50;99.90
6964;DHT22;3522;50.856;7.278;2023-02-01T12:16:29;6.50;99.90
6964;DHT22;3522;50.856;7.278;2023-02-01T12:19:19;6.50;99.90
6964;DHT22;3522;50.856;7.278;2023-02-01T12:21:55;6.60;99.90
6964;DHT22;3522;50.856;7.278;2023-02-01T12:24:31;6.60;99.90
6964;DHT22;3522;50.856;7.278;2023-02-01T12:27:02;6.50;99.90
6964;DHT22;3522;50.856;7.278;2023-02-01T12:29:41;6.50;99.90
6964;DHT22;3522;50.856;7.278;2023-02-01T12:32:15;6.50;99.90
6964;DHT22;3522;50.856;7.278;2023-02-01T12:34:50;6.50;99.90
6964;DHT22;3522;50.856;7.278;2023-02-01T12:37:21;6.50;99.90
6964;DHT22;3522;50.856;7.278;2023-02-01T12:39:51;6.50;99.90
6964;DHT22;3522;50.856;7.278;2023-02-01T12:42:21;6.50;99.90
6964;DHT22;3522;50.856;7.278;2023-02-01T12:44:50;6.50;99.90
6964;DHT22;3522;50.856;7.278;2023-02-01T12:47:22;6.50;99.90
6964;DHT22;3522;50.856;7.278;2023-02-01T12:49:54;6.50;99.90
6964;DHT22;3522;50.856;7.278;2023-02-01T12:52:24;6.60;99.90
6964;DHT22;3522;50.856;7.278;2023-02-01T12:54:53;6.60;99.90
6964;DHT22;3522;50.856;7.278;2023-02-01T12:57:23;6.60;99.90
6964;DHT22;3522;50.856;7.278;2023-02-01T12:59:52;6.60;99.90
6964;DHT22;3522;50.856;7.278;2023-02-01T13:02:25;6.50;99.90
6964;DHT22;3522;50.856;7.278;2023-02-01T13:04:57;6.50;99.90
6964;DHT22;3522;50.856;7.278;2023-02-01T13:07:28;6.50;99.90
6964;DHT22;3522;50.856;7.278;2023-02-01T13:09:57;6.60;99.90
6964;DHT22;3522;50.856;7.278;2023-02-01T13:12:28;6.60;99.90
6964;DHT22;3522;50.856;7.278;2023-02-01T13:14:56;6.60;99.90
6964;DHT22;3522;50.856;7.278;2023-02-01T13:17:26;6.60;99.90
6964;DHT22;3522;50.856;7.278;2023-02-01T13:19:54;6.60;99.90
6964;DHT22;3522;50.856;7.278;2023-02-01T13:22:23;6.60;99.90
6964;DHT22;3522;50.856;7.278;2023-02-01T13:24:52;6.60;99.90
6964;DHT22;3522;50.856;7.278;2023-02-01T13:27:20;6.60;99.90
6964;DHT22;3522;50.856;7.278;2023-02-01T13:29:49;6.60;99.90
6964;DHT22;3522;50.856;7.278;2023-02-01T13:35:06;6.60;99.90
6964;DHT22;3522;50.856;7.278;2023-02-01T13:40:27;6.60;99.90
6964;DHT22;3522;50.856;7.278;2023-02-01T13:42:57;6.70;99.90
6964;DHT22;3522;50.856;7.278;2023-02-01T13:45:26;6.60;99.90
6964;DHT22;3522;50.856;7.278;2023-02-01T13:47:54;6.70;99.90
6964;DHT22;3522;50.856;7.278;2023-02-01T13:50:23;6.70;99.90
6964;DHT22;3522;50.856;7.278;2023-02-01T13:52:52;6.70;99.90
6964;DHT22;3522;50.856;7.278;2023-02-01T13:55:32;6.70;99.90
6964;DHT22;3522;50.856;7.278;2023-02-01T13:58:00;6.60;99.90
6964;DHT22;3522;50.856;7.278;2023-02-01T14:00:28;6.60;99.90
6964;DHT22;3522;50.856;7.278;2023-02-01T14:03:02;6.60;99.90
6964;DHT22;3522;50.856;7.278;2023-02-01T14:08:20;6.60;99.90
6964;DHT22;3522;50.856;7.278;2023-02-01T14:10:48;6.60;99.90
6964;DHT22;3522;50.856;7.278;2023-02-01T14:13:22;6.60;99.90
6964;DHT22;3522;50.856;7.278;2023-02-01T14:16:10;6.60;99.90
6964;DHT22;3522;50.856;7.278;2023-02-01T14:18:56;6.60;99.90
6964;DHT22;3522;50.856;7.278;2023-02-01T14:21:25;6.60;99.90
6964;DHT22;3522;50.856;7.278;2023-02-01T14:23:57;6.60;99.90
6964;DHT22;3522;50.856;7.278;2023-02-01T14:26:25;6.70;99.90
6964;DHT22;3522;50.856;7.278;2023-02-01T14:28:54;6.60;99.90
6964;DHT22;3522;50.856;7.278;2023-02-01T14:31:32;6.70;99.90
6964;DHT22;3522;50.856;7.278;2023-02-01T14:34:00;6.70;99.90
6964;DHT22;3522;50.856;7.278;2023-02-01T14:36:38;6.70;99.90
6964;DHT22;3522;50.856;7.278;2023-02-01T14:39:17;6.70;99.90
6964;DHT22;3522;50.856;7.278;2023-02-01T14:41:44;6.80;99.90
6964;DHT22;3522;50.856;7.278;2023-02-01T14:44:14;6.80;99.90
6964;DHT22;3522;50.856;7.278;2023-02-01T14:49:22;6.80;99.90
6964;DHT22;3522;50.856;7.278;2023-02-01T14:51:49;6.80;99.90
6964;DHT22;3522;50.856;7.278;2023-02-01T14:54:18;6.80;99.90
6964;DHT22;3522;50.856;7.278;2023-02-01T14:56:45;6.80;99.90
6964;DHT22;3522;50.856;7.278;2023-02-01T14:59:12;6.90;99.90
6964;DHT22;3522;50.856;7.278;2023-02-01T15:01:46;6.90;99.90
6964;DHT22;3522;50.856;7.278;2023-02-01T15:04:14;6.90;99.90
6964;DHT22;3522;50.856;7.278;2023-02-01T15:06:43;6.80;99.90
6964;DHT22;3522;50.856;7.278;2023-02-01T15:09:12;6.80;99.90
6964;DHT22;3522;50.856;7.278;2023-02-01T15:11:58;6.90;99.90
6964;DHT22;3522;50.856;7.278;2023-02-01T15:14:25;6.80;99.90
6964;DHT22;3522;50.856;7.278;2023-02-01T15:16:51;6.90;99.90
6964;DHT22;3522;50.856;7.278;2023-02-01T15:19:20;6.90;99.90
6964;DHT22;3522;50.856;7.278;2023-02-01T15:21:48;6.90;99.90
6964;DHT22;3522;50.856;7.278;2023-02-01T15:24:18;6.90;99.90
6964;DHT22;3522;50.856;7.278;2023-02-01T15:26:45;6.90;99.90
6964;DHT22;3522;50.856;7.278;2023-02-01T15:29:13;6.90;99.90
6964;DHT22;3522;50.856;7.278;2023-02-01T15:31:41;7.00;99.90
6964;DHT22;3522;50.856;7.278;2023-02-01T15:34:08;7.00;99.90
6964;DHT22;3522;50.856;7.278;2023-02-01T15:36:34;7.00;99.90
6964;DHT22;3522;50.856;7.278;2023-02-01T15:39:12;7.10;99.90
6964;DHT22;3522;50.856;7.278;2023-02-01T15:41:43;7.00;99.90
6964;DHT22;3522;50.856;7.278;2023-02-01T15:44:13;7.10;99.90
6964;DHT22;3522;50.856;7.278;2023-02-01T15:46:46;6.90;99.90
6964;DHT22;3522;50.856;7.278;2023-02-01T15:49:17;6.90;99.90
6964;DHT22;3522;50.856;7.278;2023-02-01T15:51:46;6.90;99.90
6964;DHT22;3522;50.856;7.278;2023-02-01T15:54:15;6.90;99.90
6964;DHT22;3522;50.856;7.278;2023-02-01T15:56:48;6.90;99.90
6964;DHT22;3522;50.856;7.278;2023-02-01T15:59:18;6.90;99.90
6964;DHT22;3522;50.856;7.278;2023-02-01T16:01:47;6.80;99.90
6964;DHT22;3522;50.856;7.278;2023-02-01T16:04:15;6.80;99.90
6964;DHT22;3522;50.856;7.278;2023-02-01T16:06:46;6.70;99.90
6964;DHT22;3522;50.856;7.278;2023-02-01T16:09:15;6.70;99.90
6964;DHT22;3522;50.856;7.278;2023-02-01T16:11:47;6.70;99.90
6964;DHT22;3522;50.856;7.278;2023-02-01T16:14:14;6.60;99.90
6964;DHT22;3522;50.856;7.278;2023-02-01T16:16:40;6.60;99.90
6964;DHT22;3522;50.856;7.278;2023-02-01T16:19:08;6.60;99.90
6964;DHT22;3522;50.856;7.278;2023-02-01T16:21:35;6.70;99.90
6964;DHT22;3522;50.856;7.278;2023-02-01T16:24:02;6.80;99.90
6964;DHT22;3522;50.856;7.278;2023-02-01T16:26:29;6.80;99.90
6964;DHT22;3522;50.856;7.278;2023-02-01T16:28:56;6.80;99.90
6964;DHT22;3522;50.856;7.278;2023-02-01T16:31:25;6.80;99.90
6964;DHT22;3522;50.856;7.278;2023-02-01T16:33:53;6.80;99.90
6964;DHT22;3522;50.856;7.278;2023-02-01T16:36:21;6.80;99.90
6964;DHT22;3522;50.856;7.278;2023-02-01T16:38:48;6.80;99.90
6964;DHT22;3522;50.856;7.278;2023-02-01T16:41:15;6.70;99.90
6964;DHT22;3522;50.856;7.278;2023-02-01T16:43:42;6.60;99.90
6964;DHT22;3522;50.856;7.278;2023-02-01T16:46:11;6.50;99.90
6964;DHT22;3522;50.856;7.278;2023-02-01T16:48:40;6.50;99.90
6964;DHT22;3522;50.856;7.278;2023-02-01T16:51:09;6.50;99.90
6964;DHT22;3522;50.856;7.278;2023-02-01T16:53:37;6.40;99.90